createdAt,value
2023-03-23T00:00:13.211Z,999.91
2023-03-23T00:01:13.194Z,999.80
2023-03-23T00:02:13.181Z,999.82
2023-03-23T00:03:13.173Z,999.87
2023-03-23T00:04:13.180Z,999.90
2023-03-23T00:05:13.172Z,999.98
2023-03-23T00:06:13.135Z,999.87
2023-03-23T00:07:13.138Z,999.88
2023-03-23T00:08:13.114Z,999.82
2023-03-23T00:09:13.101Z,999.75
2023-03-23T00:10:13.741Z,999.75
2023-03-23T00:11:13.106Z,999.72
2023-03-23T00:12:13.081Z,999.70
2023-03-23T00:13:13.070Z,999.76
2023-03-23T00:14:13.072Z,999.71
2023-03-23T00:15:13.033Z,999.71
2023-03-23T00:16:13.024Z,999.73
2023-03-23T00:17:13.024Z,999.67
2023-03-23T00:18:12.998Z,999.64
2023-03-23T00:19:13.004Z,999.73
2023-03-23T00:20:12.994Z,999.70
2023-03-23T00:21:12.988Z,999.65
2023-03-23T00:22:12.970Z,999.67
2023-03-23T00:23:12.958Z,999.66
2023-03-23T00:24:12.947Z,999.74
2023-03-23T00:25:12.978Z,999.74
2023-03-23T00:26:12.905Z,999.82
2023-03-23T00:27:12.922Z,999.82
2023-03-23T00:28:12.903Z,999.71
2023-03-23T00:29:12.893Z,999.72
2023-03-23T00:30:12.878Z,999.71
2023-03-23T00:31:12.868Z,999.73
2023-03-23T00:32:12.844Z,999.72
2023-03-23T00:33:12.860Z,999.70
2023-03-23T00:34:12.817Z,999.75
2023-03-23T00:35:12.825Z,999.75
2023-03-23T00:36:12.814Z,999.71
2023-03-23T00:37:12.827Z,999.77
2023-03-23T00:38:12.778Z,999.81
2023-03-23T00:39:12.779Z,999.78
2023-03-23T00:40:12.765Z,999.74
2023-03-23T00:41:12.743Z,999.76
2023-03-23T00:42:12.731Z,999.82
2023-03-23T00:43:12.733Z,999.74
2023-03-23T00:44:12.706Z,999.73
2023-03-23T00:45:13.751Z,999.76
2023-03-23T00:46:12.698Z,999.76
2023-03-23T00:47:12.682Z,999.75
2023-03-23T00:48:12.675Z,999.76
2023-03-23T00:49:12.672Z,999.63
2023-03-23T00:50:12.675Z,999.64
2023-03-23T00:51:12.667Z,999.63
2023-03-23T00:52:12.620Z,999.51
2023-03-23T00:53:12.633Z,999.52
2023-03-23T00:54:12.594Z,999.56
2023-03-23T00:55:12.595Z,999.55
2023-03-23T00:56:12.589Z,999.50
2023-03-23T00:57:12.595Z,999.54
2023-03-23T00:58:12.567Z,999.43
2023-03-23T00:59:12.562Z,999.40
2023-03-23T01:00:12.541Z,999.38
2023-03-23T01:01:12.523Z,999.39
2023-03-23T01:02:12.555Z,999.43
2023-03-23T01:03:12.507Z,999.47
2023-03-23T01:04:12.483Z,999.45
2023-03-23T01:05:12.499Z,999.47
2023-03-23T01:06:12.472Z,999.44
2023-03-23T01:07:12.449Z,999.46
2023-03-23T01:08:12.457Z,999.36
2023-03-23T01:09:12.461Z,999.38
2023-03-23T01:10:12.411Z,999.46
2023-03-23T01:11:12.405Z,999.48
2023-03-23T01:12:12.407Z,999.53
2023-03-23T01:13:12.398Z,999.43
2023-03-23T01:14:12.389Z,999.38
2023-03-23T01:15:12.386Z,999.26
2023-03-23T01:16:12.362Z,999.25
2023-03-23T01:17:12.338Z,999.31
2023-03-23T01:18:12.321Z,999.43
2023-03-23T01:19:12.327Z,999.39
2023-03-23T01:20:12.320Z,999.38
2023-03-23T01:21:12.322Z,999.27
2023-03-23T01:22:12.277Z,999.32
2023-03-23T01:23:12.282Z,999.35
2023-03-23T01:24:12.269Z,999.33
2023-03-23T01:25:12.321Z,999.30
2023-03-23T01:26:12.244Z,999.26
2023-03-23T01:27:12.222Z,999.26
2023-03-23T01:28:12.222Z,999.21
2023-03-23T01:29:12.200Z,999.26
2023-03-23T01:30:12.184Z,999.17
2023-03-23T01:31:14.261Z,999.24
2023-03-23T01:32:12.188Z,999.16
2023-03-23T01:33:12.170Z,999.18
2023-03-23T01:34:12.157Z,999.20
2023-03-23T01:35:12.151Z,999.15
2023-03-23T01:36:12.131Z,999.23
2023-03-23T01:37:12.124Z,999.18
2023-03-23T01:38:12.096Z,999.19
2023-03-23T01:39:12.089Z,999.20
2023-03-23T01:40:12.118Z,999.25
2023-03-23T01:41:12.093Z,999.24
2023-03-23T01:42:12.072Z,999.21
2023-03-23T01:43:12.056Z,999.27
2023-03-23T01:44:12.030Z,999.31
2023-03-23T01:45:12.044Z,999.29
2023-03-23T01:46:12.009Z,999.28
2023-03-23T01:47:12.009Z,999.28
2023-03-23T01:48:12.005Z,999.27
2023-03-23T01:49:11.981Z,999.20
2023-03-23T01:50:11.987Z,999.24
2023-03-23T01:51:11.962Z,999.18
2023-03-23T01:52:11.945Z,999.14
2023-03-23T01:53:11.970Z,999.12
2023-03-23T01:54:11.937Z,999.14
2023-03-23T01:55:11.937Z,999.23
2023-03-23T01:56:11.910Z,999.22
2023-03-23T01:57:11.938Z,999.25
2023-03-23T01:58:11.883Z,999.18
2023-03-23T01:59:11.882Z,999.22
2023-03-23T02:00:11.896Z,999.21
2023-03-23T02:01:11.861Z,999.22
2023-03-23T02:02:11.847Z,999.32
2023-03-23T02:03:11.853Z,999.30
2023-03-23T02:04:12.828Z,999.24
2023-03-23T02:05:11.830Z,999.34
2023-03-23T02:06:11.823Z,999.29
2023-03-23T02:07:11.848Z,999.24
2023-03-23T02:08:11.763Z,999.26
2023-03-23T02:09:11.757Z,999.13
2023-03-23T02:10:11.760Z,999.21
2023-03-23T02:11:11.747Z,999.16
2023-03-23T02:12:12.749Z,999.13
2023-03-23T02:13:12.774Z,999.14
2023-03-23T02:14:11.693Z,999.25
2023-03-23T02:15:11.718Z,999.20
2023-03-23T02:16:11.683Z,999.29
2023-03-23T02:17:11.676Z,999.29
2023-03-23T02:18:11.661Z,999.34
2023-03-23T02:19:11.670Z,999.17
2023-03-23T02:20:11.661Z,999.00
2023-03-23T02:21:11.634Z,999.00
2023-03-23T02:22:11.602Z,999.05
2023-03-23T02:23:11.598Z,999.11
2023-03-23T02:24:11.581Z,999.09
2023-03-23T02:25:11.596Z,999.10
2023-03-23T02:26:11.573Z,999.06
2023-03-23T02:27:11.551Z,998.91
2023-03-23T02:28:11.552Z,998.80
2023-03-23T02:29:11.567Z,998.79
2023-03-23T02:30:11.537Z,998.73
2023-03-23T02:31:11.531Z,998.60
2023-03-23T02:32:11.506Z,998.58
2023-03-23T02:33:11.495Z,998.59
2023-03-23T02:34:11.468Z,998.65
2023-03-23T02:35:11.462Z,998.55
2023-03-23T02:36:11.446Z,998.59
2023-03-23T02:37:11.482Z,998.60
2023-03-23T02:38:11.422Z,998.55
2023-03-23T02:39:11.430Z,998.33
2023-03-23T02:40:11.404Z,998.30
2023-03-23T02:41:11.393Z,998.26
2023-03-23T02:42:14.345Z,998.25
2023-03-23T02:43:11.432Z,998.29
2023-03-23T02:44:11.361Z,998.26
2023-03-23T02:45:11.397Z,998.31
2023-03-23T02:46:11.345Z,998.40
2023-03-23T02:47:11.328Z,998.52
2023-03-23T02:48:11.321Z,998.64
2023-03-23T02:49:11.305Z,998.50
2023-03-23T02:50:11.323Z,998.56
2023-03-23T02:51:11.281Z,998.73
2023-03-23T02:52:11.279Z,998.62
2023-03-23T02:53:11.280Z,998.59
2023-03-23T02:54:11.243Z,998.60
2023-03-23T02:55:11.286Z,998.65
2023-03-23T02:56:11.230Z,998.62
2023-03-23T02:57:11.223Z,998.72
2023-03-23T02:58:11.250Z,998.65
2023-03-23T02:59:11.188Z,998.64
2023-03-23T03:00:11.190Z,998.66
2023-03-23T03:01:11.211Z,998.63
2023-03-23T03:02:11.168Z,998.65
2023-03-23T03:03:11.156Z,998.71
2023-03-23T03:04:11.162Z,998.73
2023-03-23T03:05:11.155Z,998.66
2023-03-23T03:06:11.122Z,998.64
2023-03-23T03:07:11.110Z,998.67
2023-03-23T03:08:11.082Z,998.62
2023-03-23T03:09:11.091Z,998.59
2023-03-23T03:10:11.094Z,998.67
2023-03-23T03:11:12.052Z,998.56
2023-03-23T03:12:11.036Z,998.48
2023-03-23T03:13:11.032Z,998.53
2023-03-23T03:14:11.034Z,998.58
2023-03-23T03:15:11.035Z,998.54
2023-03-23T03:16:11.005Z,998.42
2023-03-23T03:17:11.012Z,998.50
2023-03-23T03:18:10.983Z,998.58
2023-03-23T03:19:10.964Z,998.56
2023-03-23T03:20:10.991Z,998.66
2023-03-23T03:21:10.956Z,998.68
2023-03-23T03:22:10.925Z,998.70
2023-03-23T03:23:10.932Z,998.68
2023-03-23T03:24:10.917Z,998.75
2023-03-23T03:25:18.104Z,998.64
2023-03-23T03:26:11.881Z,998.63
2023-03-23T03:27:10.877Z,998.75
2023-03-23T03:28:10.873Z,998.60
2023-03-23T03:29:10.857Z,998.65
2023-03-23T03:30:10.867Z,998.74
2023-03-23T03:31:10.837Z,998.67
2023-03-23T03:32:10.819Z,998.71
2023-03-23T03:33:10.847Z,998.70
2023-03-23T03:34:10.804Z,998.70
2023-03-23T03:35:10.812Z,998.64
2023-03-23T03:36:10.812Z,998.63
2023-03-23T03:37:10.768Z,998.64
2023-03-23T03:38:10.751Z,998.66
2023-03-23T03:39:10.741Z,998.65
2023-03-23T03:40:10.744Z,998.76
2023-03-23T03:41:10.732Z,998.82
2023-03-23T03:42:10.704Z,998.71
2023-03-23T03:43:10.703Z,998.73
2023-03-23T03:44:10.682Z,998.69
2023-03-23T03:45:10.676Z,998.77
2023-03-23T03:46:10.738Z,998.70
2023-03-23T03:47:10.672Z,998.79
2023-03-23T03:48:10.649Z,998.75
2023-03-23T03:49:10.650Z,998.78
2023-03-23T03:50:10.615Z,998.78
2023-03-23T03:51:10.623Z,998.95
2023-03-23T03:52:10.616Z,998.77
2023-03-23T03:53:10.601Z,998.72
2023-03-23T03:54:10.588Z,998.71
2023-03-23T03:55:10.558Z,998.73
2023-03-23T03:56:10.600Z,998.76
2023-03-23T03:57:10.548Z,998.80
2023-03-23T03:58:10.542Z,998.83
2023-03-23T03:59:21.569Z,998.82
2023-03-23T04:00:11.523Z,998.78
2023-03-23T04:01:10.491Z,998.75
2023-03-23T04:02:10.500Z,998.70
2023-03-23T04:03:10.483Z,998.66
2023-03-23T04:04:10.484Z,998.72
2023-03-23T04:05:10.481Z,998.67
2023-03-23T04:06:10.456Z,998.69
2023-03-23T04:07:10.454Z,998.74
2023-03-23T04:08:10.420Z,998.67
2023-03-23T04:09:10.417Z,998.66
2023-03-23T04:10:10.394Z,998.65
2023-03-23T04:11:10.399Z,998.64
2023-03-23T04:12:11.368Z,998.65
2023-03-23T04:13:10.357Z,998.66
2023-03-23T04:14:10.353Z,998.65
2023-03-23T04:15:10.346Z,998.69
2023-03-23T04:16:11.201Z,998.79
2023-03-23T04:17:10.330Z,998.74
2023-03-23T04:18:10.321Z,998.74
2023-03-23T04:19:11.959Z,998.68
2023-03-23T04:20:10.280Z,998.77
2023-03-23T04:21:10.329Z,998.83
2023-03-23T04:22:10.298Z,998.71
2023-03-23T04:23:10.256Z,998.70
2023-03-23T04:24:23.452Z,998.75
2023-03-23T04:25:11.237Z,998.81
2023-03-23T04:26:10.221Z,998.82
2023-03-23T04:27:10.203Z,998.81
2023-03-23T04:28:10.210Z,998.80
2023-03-23T04:29:10.191Z,998.80
2023-03-23T04:30:10.186Z,998.82
2023-03-23T04:31:10.180Z,998.82
2023-03-23T04:32:10.161Z,998.85
2023-03-23T04:33:10.145Z,998.87
2023-03-23T04:34:10.126Z,998.94
2023-03-23T04:35:12.852Z,998.94
2023-03-23T04:36:10.180Z,998.85
2023-03-23T04:37:10.127Z,998.78
2023-03-23T04:38:10.085Z,998.81
2023-03-23T04:39:10.083Z,999.07
2023-03-23T04:40:10.078Z,998.99
2023-03-23T04:41:10.081Z,998.98
2023-03-23T04:42:10.050Z,999.04
2023-03-23T04:43:10.037Z,998.90
2023-03-23T04:44:10.026Z,998.86
2023-03-23T04:45:10.013Z,998.83
2023-03-23T04:46:10.023Z,998.92
2023-03-23T04:47:09.976Z,998.93
2023-03-23T04:48:09.969Z,998.91
2023-03-23T04:49:09.971Z,998.89
2023-03-23T04:50:09.952Z,998.93
2023-03-23T04:51:09.961Z,998.97
2023-03-23T04:52:09.929Z,998.99
2023-03-23T04:53:09.944Z,998.99
2023-03-23T04:54:09.913Z,998.96
2023-03-23T04:55:09.905Z,998.95
2023-03-23T04:56:09.893Z,998.93
2023-03-23T04:57:09.866Z,998.96
2023-03-23T04:58:09.858Z,998.89
2023-03-23T04:59:09.856Z,998.93
2023-03-23T05:00:09.838Z,998.89
2023-03-23T05:01:09.860Z,998.91
2023-03-23T05:02:14.323Z,998.89
2023-03-23T05:03:10.809Z,998.89
2023-03-23T05:04:09.837Z,998.89
2023-03-23T05:05:09.774Z,999.00
2023-03-23T05:06:09.800Z,998.91
2023-03-23T05:07:09.766Z,998.91
2023-03-23T05:08:09.745Z,998.96
2023-03-23T05:09:09.766Z,999.03
2023-03-23T05:10:09.734Z,999.06
2023-03-23T05:11:09.722Z,999.04
2023-03-23T05:12:09.725Z,999.01
2023-03-23T05:13:09.685Z,999.01
2023-03-23T05:14:09.689Z,998.99
2023-03-23T05:15:09.659Z,999.05
2023-03-23T05:16:09.666Z,999.04
2023-03-23T05:17:09.650Z,999.04
2023-03-23T05:18:09.642Z,999.04
2023-03-23T05:19:09.636Z,999.03
2023-03-23T05:20:09.619Z,999.05
2023-03-23T05:21:09.597Z,999.01
2023-03-23T05:22:09.604Z,999.03
2023-03-23T05:23:09.575Z,999.09
2023-03-23T05:24:09.564Z,999.08
2023-03-23T05:25:09.582Z,999.04
2023-03-23T05:26:09.554Z,999.02
2023-03-23T05:27:09.583Z,999.07
2023-03-23T05:28:09.517Z,999.02
2023-03-23T05:29:09.515Z,999.04
2023-03-23T05:30:09.512Z,999.06
2023-03-23T05:31:09.489Z,998.99
2023-03-23T05:32:09.504Z,999.01
2023-03-23T05:33:09.515Z,999.04
2023-03-23T05:34:09.477Z,999.03
2023-03-23T05:35:09.436Z,999.02
2023-03-23T05:36:09.437Z,999.07
2023-03-23T05:37:11.234Z,999.04
2023-03-23T05:38:09.406Z,999.04
2023-03-23T05:39:09.409Z,999.10
2023-03-23T05:40:09.397Z,999.13
2023-03-23T05:41:09.392Z,999.12
2023-03-23T05:42:09.374Z,999.20
2023-03-23T05:43:09.360Z,999.15
2023-03-23T05:44:09.372Z,999.21
2023-03-23T05:45:09.345Z,999.21
2023-03-23T05:46:09.326Z,999.16
2023-03-23T05:47:09.302Z,999.10
2023-03-23T05:48:09.320Z,999.09
2023-03-23T05:49:09.287Z,999.05
2023-03-23T05:50:09.282Z,999.15
2023-03-23T05:51:09.252Z,999.17
2023-03-23T05:52:09.247Z,999.13
2023-03-23T05:53:09.523Z,999.17
2023-03-23T05:54:09.235Z,999.14
2023-03-23T05:55:09.267Z,999.14
2023-03-23T05:56:09.202Z,999.10
2023-03-23T05:57:09.210Z,999.11
2023-03-23T05:58:09.195Z,999.08
2023-03-23T05:59:09.176Z,999.13
2023-03-23T06:00:09.154Z,999.10
2023-03-23T06:01:09.154Z,999.10
2023-03-23T06:02:09.136Z,999.20
2023-03-23T06:03:09.149Z,999.22
2023-03-23T06:04:09.134Z,999.23
2023-03-23T06:05:09.111Z,999.13
2023-03-23T06:06:09.136Z,999.31
2023-03-23T06:07:09.077Z,999.23
2023-03-23T06:08:09.070Z,999.25
2023-03-23T06:09:09.088Z,999.27
2023-03-23T06:10:09.061Z,999.26
2023-03-23T06:11:09.046Z,999.21
2023-03-23T06:12:09.022Z,999.23
2023-03-23T06:13:09.051Z,999.29
2023-03-23T06:14:09.452Z,999.24
2023-03-23T06:15:09.028Z,999.34
2023-03-23T06:16:08.995Z,999.35
2023-03-23T06:17:08.966Z,999.39
2023-03-23T06:18:09.002Z,999.39
2023-03-23T06:19:08.960Z,999.29
2023-03-23T06:20:08.952Z,999.33
2023-03-23T06:21:08.941Z,999.35
2023-03-23T06:22:09.921Z,999.41
2023-03-23T06:23:08.918Z,999.40
2023-03-23T06:24:08.887Z,999.39
2023-03-23T06:25:08.895Z,999.41
2023-03-23T06:26:08.879Z,999.39
2023-03-23T06:27:08.850Z,999.46
2023-03-23T06:28:08.872Z,999.49
2023-03-23T06:29:08.851Z,999.54
2023-03-23T06:30:08.821Z,999.48
2023-03-23T06:31:08.825Z,999.45
2023-03-23T06:32:08.806Z,999.38
2023-03-23T06:33:08.811Z,999.37
2023-03-23T06:34:08.777Z,999.43
2023-03-23T06:35:08.779Z,999.35
2023-03-23T06:36:08.810Z,999.39
2023-03-23T06:37:08.740Z,999.40
2023-03-23T06:38:08.791Z,999.38
2023-03-23T06:39:08.716Z,999.35
2023-03-23T06:40:08.750Z,999.33
2023-03-23T06:41:08.709Z,999.37
2023-03-23T06:42:08.688Z,999.42
2023-03-23T06:43:08.699Z,999.46
2023-03-23T06:44:08.680Z,999.46
2023-03-23T06:45:08.685Z,999.47
2023-03-23T06:46:08.657Z,999.54
2023-03-23T06:47:08.644Z,999.57
2023-03-23T06:48:08.648Z,999.53
2023-03-23T06:49:08.604Z,999.44
2023-03-23T06:50:08.629Z,999.39
2023-03-23T06:51:08.583Z,999.44
2023-03-23T06:52:08.588Z,999.44
2023-03-23T06:53:08.593Z,999.49
2023-03-23T06:54:08.555Z,999.52
2023-03-23T06:55:08.554Z,999.53
2023-03-23T06:56:08.543Z,999.55
2023-03-23T06:57:08.529Z,999.51
2023-03-23T06:58:08.550Z,999.58
2023-03-23T06:59:08.505Z,999.60
2023-03-23T07:00:09.489Z,999.56
2023-03-23T07:01:08.497Z,999.58
2023-03-23T07:02:08.464Z,999.55
2023-03-23T07:03:08.448Z,999.59
2023-03-23T07:04:08.495Z,999.60
2023-03-23T07:05:08.444Z,999.55
2023-03-23T07:06:08.418Z,999.65
2023-03-23T07:07:08.421Z,999.67
2023-03-23T07:08:08.437Z,999.59
2023-03-23T07:09:08.400Z,999.51
2023-03-23T07:10:08.387Z,999.61
2023-03-23T07:11:08.369Z,999.59
2023-03-23T07:12:08.365Z,999.58
2023-03-23T07:13:08.348Z,999.55
2023-03-23T07:14:08.380Z,999.57
2023-03-23T07:15:08.325Z,999.53
2023-03-23T07:16:08.341Z,999.55
2023-03-23T07:17:08.314Z,999.47
2023-03-23T07:18:08.311Z,999.59
2023-03-23T07:19:08.281Z,999.60
2023-03-23T07:20:08.262Z,999.54
2023-03-23T07:21:08.242Z,999.56
2023-03-23T07:22:08.245Z,999.61
2023-03-23T07:23:08.266Z,999.65
2023-03-23T07:24:08.213Z,999.61
2023-03-23T07:25:08.213Z,999.68
2023-03-23T07:26:08.205Z,999.67
2023-03-23T07:27:08.198Z,999.62
2023-03-23T07:28:08.169Z,999.63
2023-03-23T07:29:08.175Z,999.63
2023-03-23T07:30:08.145Z,999.62
2023-03-23T07:31:08.145Z,999.69
2023-03-23T07:32:08.138Z,999.62
2023-03-23T07:33:08.152Z,999.60
2023-03-23T07:34:08.174Z,999.56
2023-03-23T07:35:08.907Z,999.54
2023-03-23T07:36:08.152Z,999.52
2023-03-23T07:37:08.069Z,999.56
2023-03-23T07:38:08.067Z,999.56
2023-03-23T07:39:08.073Z,999.55
2023-03-23T07:40:08.031Z,999.58
2023-03-23T07:41:08.017Z,999.59
2023-03-23T07:42:08.032Z,999.55
2023-03-23T07:43:08.013Z,999.57
2023-03-23T07:44:08.024Z,999.55
2023-03-23T07:45:07.990Z,999.66
2023-03-23T07:46:07.995Z,999.65
2023-03-23T07:47:07.950Z,999.59
2023-03-23T07:48:15.889Z,999.66
2023-03-23T07:49:08.969Z,999.69
2023-03-23T07:50:07.927Z,999.64
2023-03-23T07:51:07.904Z,999.74
2023-03-23T07:52:07.896Z,999.71
2023-03-23T07:53:07.880Z,999.69
2023-03-23T07:54:07.872Z,999.64
2023-03-23T07:55:07.902Z,999.66
2023-03-23T07:56:07.854Z,999.65
2023-03-23T07:57:07.856Z,999.67
2023-03-23T07:58:07.846Z,999.73
2023-03-23T07:59:07.830Z,999.59
2023-03-23T08:00:07.821Z,999.68
2023-03-23T08:01:07.871Z,999.58
2023-03-23T08:02:07.785Z,999.75
2023-03-23T08:03:07.789Z,999.64
2023-03-23T08:04:07.777Z,999.72
2023-03-23T08:05:07.810Z,999.66
2023-03-23T08:06:07.758Z,999.69
2023-03-23T08:07:07.720Z,999.70
2023-03-23T08:08:07.729Z,999.65
2023-03-23T08:09:07.719Z,999.65
2023-03-23T08:10:07.710Z,999.69
2023-03-23T08:11:07.691Z,999.64
2023-03-23T08:12:07.666Z,999.54
2023-03-23T08:13:07.668Z,999.69
2023-03-23T08:14:07.698Z,999.50
2023-03-23T08:15:07.668Z,999.50
2023-03-23T08:16:07.630Z,999.75
2023-03-23T08:17:07.620Z,999.54
2023-03-23T08:18:07.606Z,999.55
2023-03-23T08:19:08.560Z,999.55
2023-03-23T08:20:07.601Z,999.63
2023-03-23T08:21:07.603Z,999.63
2023-03-23T08:22:07.556Z,999.60
2023-03-23T08:23:07.558Z,999.60
2023-03-23T08:24:07.528Z,999.57
2023-03-23T08:25:07.549Z,999.61
2023-03-23T08:26:07.520Z,999.65
2023-03-23T08:27:07.500Z,999.64
2023-03-23T08:28:07.494Z,999.62
2023-03-23T08:29:07.491Z,999.58
2023-03-23T08:30:07.483Z,999.66
2023-03-23T08:31:07.462Z,999.64
2023-03-23T08:32:07.450Z,999.78
2023-03-23T08:33:07.427Z,999.69
2023-03-23T08:34:07.488Z,999.65
2023-03-23T08:35:07.407Z,999.68
2023-03-23T08:36:07.450Z,999.63
2023-03-23T08:37:07.410Z,999.69
2023-03-23T08:38:07.380Z,999.71
2023-03-23T08:39:07.388Z,999.76
2023-03-23T08:40:07.439Z,999.66
2023-03-23T08:41:07.350Z,999.72
2023-03-23T08:42:07.322Z,999.72
2023-03-23T08:43:07.317Z,999.75
2023-03-23T08:44:07.298Z,999.65
2023-03-23T08:45:07.307Z,999.71
2023-03-23T08:46:07.278Z,999.71
2023-03-23T08:47:07.270Z,999.68
2023-03-23T08:48:07.266Z,999.68
2023-03-23T08:49:07.246Z,999.72
2023-03-23T08:50:07.252Z,999.68
2023-03-23T08:51:07.250Z,999.57
2023-03-23T08:52:07.210Z,999.64
2023-03-23T08:53:07.242Z,999.65
2023-03-23T08:54:07.205Z,999.75
2023-03-23T08:55:07.230Z,999.74
2023-03-23T08:56:07.167Z,999.76
2023-03-23T08:57:07.269Z,999.76
2023-03-23T08:58:07.161Z,999.80
2023-03-23T08:59:07.154Z,999.89
2023-03-23T09:00:07.147Z,999.89
2023-03-23T09:01:07.130Z,999.90
2023-03-23T09:02:07.107Z,999.87
2023-03-23T09:03:07.113Z,999.95
2023-03-23T09:04:07.090Z,999.98
2023-03-23T09:05:07.084Z,1000.00
2023-03-23T09:06:07.064Z,1000.01
2023-03-23T09:07:07.045Z,1000.01
2023-03-23T09:08:07.033Z,1000.07
2023-03-23T09:09:07.233Z,1000.06
2023-03-23T09:10:07.055Z,1000.06
2023-03-23T09:11:07.004Z,1000.05
2023-03-23T09:12:06.984Z,1000.07
2023-03-23T09:13:07.018Z,1000.09
2023-03-23T09:14:06.974Z,1000.05
2023-03-23T09:15:06.984Z,1000.05
2023-03-23T09:16:06.942Z,1000.07
2023-03-23T09:17:06.937Z,1000.07
2023-03-23T09:18:06.939Z,1000.00
2023-03-23T09:19:06.915Z,1000.12
2023-03-23T09:20:06.937Z,1000.14
2023-03-23T09:21:06.911Z,1000.11
2023-03-23T09:22:07.877Z,1000.09
2023-03-23T09:23:06.885Z,1000.12
2023-03-23T09:24:06.853Z,1000.06
2023-03-23T09:25:08.660Z,1000.06
2023-03-23T09:26:06.841Z,999.99
2023-03-23T09:27:06.887Z,999.97
2023-03-23T09:28:06.813Z,999.93
2023-03-23T09:29:06.831Z,999.92
2023-03-23T09:30:06.812Z,999.93
2023-03-23T09:31:06.800Z,999.94
2023-03-23T09:32:06.785Z,999.92
2023-03-23T09:33:06.790Z,999.87
2023-03-23T09:34:06.763Z,999.95
2023-03-23T09:35:06.749Z,1000.03
2023-03-23T09:36:06.722Z,999.95
2023-03-23T09:37:06.726Z,1000.01
2023-03-23T09:38:06.697Z,1000.01
2023-03-23T09:39:06.690Z,999.99
2023-03-23T09:40:07.173Z,999.97
2023-03-23T09:41:06.706Z,999.92
2023-03-23T09:42:06.673Z,999.98
2023-03-23T09:43:06.654Z,1000.01
2023-03-23T09:44:06.646Z,1000.08
2023-03-23T09:45:06.665Z,1000.06
2023-03-23T09:46:06.613Z,1000.11
2023-03-23T09:47:06.618Z,1000.12
2023-03-23T09:48:07.661Z,1000.11
2023-03-23T09:49:06.577Z,1000.20
2023-03-23T09:50:06.592Z,1000.18
2023-03-23T09:51:06.569Z,1000.12
2023-03-23T09:52:06.554Z,1000.19
2023-03-23T09:53:06.549Z,1000.19
2023-03-23T09:54:06.536Z,1000.16
2023-03-23T09:55:06.539Z,1000.22
2023-03-23T09:56:06.502Z,1000.21
2023-03-23T09:57:06.565Z,1000.22
2023-03-23T09:58:06.494Z,1000.19
2023-03-23T09:59:06.546Z,1000.12
2023-03-23T10:00:06.470Z,1000.05
2023-03-23T10:01:06.513Z,1000.08
2023-03-23T10:02:06.439Z,1000.06
2023-03-23T10:03:06.439Z,1000.07
2023-03-23T10:04:06.408Z,1000.11
2023-03-23T10:05:06.401Z,1000.04
2023-03-23T10:06:06.415Z,1000.13
2023-03-23T10:07:06.400Z,1000.12
2023-03-23T10:08:06.409Z,1000.16
2023-03-23T10:09:06.411Z,1000.13
2023-03-23T10:10:06.387Z,1000.15
2023-03-23T10:11:06.334Z,1000.11
2023-03-23T10:12:06.332Z,1000.13
2023-03-23T10:13:06.357Z,1000.16
2023-03-23T10:14:06.312Z,1000.12
2023-03-23T10:15:06.349Z,1000.06
2023-03-23T10:16:06.281Z,1000.21
2023-03-23T10:17:06.367Z,1000.07
2023-03-23T10:18:06.251Z,1000.09
2023-03-23T10:19:06.250Z,1000.18
2023-03-23T10:20:06.284Z,1000.20
2023-03-23T10:21:06.246Z,1000.04
2023-03-23T10:22:06.266Z,1000.07
2023-03-23T10:23:06.217Z,1000.10
2023-03-23T10:24:06.205Z,1000.12
2023-03-23T10:25:06.191Z,1000.10
2023-03-23T10:26:06.178Z,1000.18
2023-03-23T10:27:06.214Z,1000.19
2023-03-23T10:28:06.139Z,1000.23
2023-03-23T10:29:06.168Z,1000.20
2023-03-23T10:30:06.129Z,1000.26
2023-03-23T10:31:06.123Z,1000.23
2023-03-23T10:32:06.129Z,1000.21
2023-03-23T10:33:06.087Z,1000.22
2023-03-23T10:34:06.074Z,1000.16
2023-03-23T10:35:06.085Z,1000.21
2023-03-23T10:36:06.080Z,1000.29
2023-03-23T10:37:06.057Z,1000.21
2023-03-23T10:38:06.064Z,1000.22
2023-03-23T10:39:06.025Z,1000.16
2023-03-23T10:40:06.007Z,1000.23
2023-03-23T10:41:06.017Z,1000.15
2023-03-23T10:42:05.998Z,1000.16
2023-03-23T10:43:05.989Z,1000.22
2023-03-23T10:44:05.977Z,1000.14
2023-03-23T10:45:06.006Z,1000.21
2023-03-23T10:46:06.252Z,1000.22
2023-03-23T10:47:05.955Z,1000.20
2023-03-23T10:48:05.925Z,1000.33
2023-03-23T10:49:05.921Z,1000.20
2023-03-23T10:50:05.897Z,1000.19
2023-03-23T10:51:05.941Z,1000.22
2023-03-23T10:52:05.873Z,1000.28
2023-03-23T10:53:06.524Z,1000.24
2023-03-23T10:54:05.869Z,1000.26
2023-03-23T10:55:05.880Z,1000.20
2023-03-23T10:56:05.874Z,1000.29
2023-03-23T10:57:05.836Z,1000.30
2023-03-23T10:58:05.804Z,1000.31
2023-03-23T10:59:05.817Z,1000.31
2023-03-23T11:00:05.799Z,1000.19
2023-03-23T11:01:05.814Z,1000.28
2023-03-23T11:02:05.794Z,1000.28
2023-03-23T11:03:06.918Z,1000.27
2023-03-23T11:04:05.753Z,1000.30
2023-03-23T11:05:09.422Z,1000.27
2023-03-23T11:06:06.784Z,1000.31
2023-03-23T11:07:05.722Z,1000.39
2023-03-23T11:08:05.704Z,1000.41
2023-03-23T11:09:05.686Z,1000.27
2023-03-23T11:10:05.683Z,1000.27
2023-03-23T11:11:05.678Z,1000.22
2023-03-23T11:12:05.659Z,1000.31
2023-03-23T11:13:05.662Z,1000.23
2023-03-23T11:14:05.637Z,1000.31
2023-03-23T11:15:05.625Z,1000.19
2023-03-23T11:16:05.643Z,1000.27
2023-03-23T11:17:13.982Z,1000.23
2023-03-23T11:18:06.589Z,1000.31
2023-03-23T11:19:05.603Z,1000.25
2023-03-23T11:20:05.555Z,1000.20
2023-03-23T11:21:05.559Z,1000.16
2023-03-23T11:22:05.540Z,1000.18
2023-03-23T11:23:05.545Z,1000.12
2023-03-23T11:24:09.870Z,1000.18
2023-03-23T11:25:05.519Z,1000.18
2023-03-23T11:26:05.510Z,1000.12
2023-03-23T11:27:05.496Z,1000.11
2023-03-23T11:28:05.488Z,1000.15
2023-03-23T11:29:05.460Z,1000.19
2023-03-23T11:30:05.465Z,1000.14
2023-03-23T11:31:05.451Z,1000.11
2023-03-23T11:32:05.451Z,1000.29
2023-03-23T11:33:05.474Z,1000.18
2023-03-23T11:34:06.262Z,1000.12
2023-03-23T11:35:15.962Z,1000.16
2023-03-23T11:36:06.407Z,1000.25
2023-03-23T11:37:05.403Z,1000.10
2023-03-23T11:38:05.411Z,1000.05
2023-03-23T11:39:05.373Z,1000.04
2023-03-23T11:40:05.340Z,999.99
2023-03-23T11:41:05.345Z,1000.03
2023-03-23T11:42:09.446Z,999.94
2023-03-23T11:43:05.317Z,1000.01
2023-03-23T11:44:05.319Z,1000.07
2023-03-23T11:45:05.298Z,1000.06
2023-03-23T11:46:05.280Z,999.96
2023-03-23T11:47:05.308Z,1000.05
2023-03-23T11:48:05.245Z,1000.00
2023-03-23T11:49:15.556Z,999.97
2023-03-23T11:50:06.250Z,1000.09
2023-03-23T11:51:05.213Z,1000.03
2023-03-23T11:52:05.231Z,1000.04
2023-03-23T11:53:05.193Z,1000.08
2023-03-23T11:54:05.176Z,999.98
2023-03-23T11:55:05.183Z,1000.08
2023-03-23T11:56:05.177Z,1000.06
2023-03-23T11:57:05.167Z,1000.02
2023-03-23T11:58:05.145Z,1000.06
2023-03-23T11:59:05.137Z,1000.22
2023-03-23T12:00:05.108Z,999.99
2023-03-23T12:01:05.109Z,1000.15
2023-03-23T12:02:16.784Z,1000.06
2023-03-23T12:03:06.091Z,1000.08
2023-03-23T12:04:05.066Z,1000.15
2023-03-23T12:05:05.084Z,1000.15
2023-03-23T12:06:05.045Z,1000.21
2023-03-23T12:07:05.050Z,1000.06
2023-03-23T12:08:05.048Z,1000.08
2023-03-23T12:09:05.017Z,1000.07
2023-03-23T12:10:05.016Z,1000.08
2023-03-23T12:11:05.118Z,1000.12
2023-03-23T12:12:04.987Z,1000.14
2023-03-23T12:13:04.980Z,1000.11
2023-03-23T12:14:04.960Z,1000.14
2023-03-23T12:15:04.964Z,1000.13
2023-03-23T12:16:04.932Z,1000.11
2023-03-23T12:17:04.927Z,1000.14
2023-03-23T12:18:04.925Z,1000.14
2023-03-23T12:19:04.911Z,1000.10
2023-03-23T12:20:04.885Z,1000.14
2023-03-23T12:21:04.917Z,1000.15
2023-03-23T12:22:04.876Z,1000.08